Time;durP1;ratioP1;P1;durP2;ratioP2;P2;SDS_P1;SDS_P2;PMS_P1;PMS_P2;Temp;Humidity;BMP_temperature;BMP_pressure;BME280_temperature;BME280_humidity;BME280_pressure;Samples;Min_cycle;Max_cycle;Signal;HPM_P1;HPM_P2
2022/11/18 00:00:04;;;;;;;;;;;8.50;99.90;;;;;;4991112;28;19928;-71
2022/11/18 00:02:30;;;;;;;;;;;8.00;99.90;;;;;;4992181;28;20266;-71
2022/11/18 00:04:58;;;;;;;;;;;8.00;99.90;;;;;;4992766;28;19968;-71
2022/11/18 00:07:25;;;;;;;;;;;8.00;99.90;;;;;;4992522;28;19972;-71
2022/11/18 00:09:50;;;;;;;;;;;7.80;99.90;;;;;;4987084;28;20425;-71
2022/11/18 00:15:00;;;;;;;;;;;7.80;99.90;;;;;;4989400;28;19984;-71
2022/11/18 00:17:25;;;;;;;;;;;7.80;99.90;;;;;;4991560;28;19973;-71
2022/11/18 00:19:51;;;;;;;;;;;7.90;99.90;;;;;;4990446;28;19922;-71
2022/11/18 00:22:19;;;;;;;;;;;7.90;99.90;;;;;;4992631;28;20276;-70
2022/11/18 00:24:45;;;;;;;;;;;7.90;99.90;;;;;;4991876;28;19921;-70
2022/11/18 00:27:11;;;;;;;;;;;7.80;99.90;;;;;;4992092;28;20012;-71
2022/11/18 00:29:40;;;;;;;;;;;8.30;99.90;;;;;;4991225;28;20020;-70
2022/11/18 00:32:05;;;;;;;;;;;7.70;99.90;;;;;;4992167;28;20016;-71
2022/11/18 00:34:31;;;;;;;;;;;8.00;99.90;;;;;;4991869;28;20034;-71
2022/11/18 00:36:56;;;;;;;;;;;7.70;99.90;;;;;;4993903;28;19960;-72
2022/11/18 00:39:22;;;;;;;;;;;7.70;99.90;;;;;;4999421;28;19929;-72
2022/11/18 00:44:32;;;;;;;;;;;7.60;99.90;;;;;;4998726;28;20337;-70
2022/11/18 00:46:57;;;;;;;;;;;7.60;99.90;;;;;;4996286;28;19929;-70
2022/11/18 00:49:26;;;;;;;;;;;7.60;99.90;;;;;;4994517;28;20328;-71
2022/11/18 00:51:51;;;;;;;;;;;9.00;99.90;;;;;;4992437;28;19945;-70
2022/11/18 00:54:17;;;;;;;;;;;7.50;99.90;;;;;;4991732;28;20410;-71
2022/11/18 00:56:45;;;;;;;;;;;7.50;99.90;;;;;;4991625;28;19922;-70
2022/11/18 00:59:11;;;;;;;;;;;7.50;99.90;;;;;;4991112;28;19922;-70
2022/11/18 01:01:36;;;;;;;;;;;7.40;99.90;;;;;;4990555;28;19922;-71
2022/11/18 01:04:02;;;;;;;;;;;7.40;99.90;;;;;;4992050;28;20361;-70
2022/11/18 01:06:28;;;;;;;;;;;7.40;99.90;;;;;;4990232;28;19926;-70
2022/11/18 01:08:53;;;;;;;;;;;7.40;99.90;;;;;;4991093;28;19922;-69
2022/11/18 01:14:09;;;;;;;;;;;7.30;99.90;;;;;;4987783;28;19928;-69
2022/11/18 01:16:35;;;;;;;;;;;7.20;99.90;;;;;;4990881;28;19926;-69
2022/11/18 01:19:00;;;;;;;;;;;8.30;99.90;;;;;;4992122;28;20304;-70
2022/11/18 01:21:27;;;;;;;;;;;7.20;99.90;;;;;;4991626;28;19925;-70
2022/11/18 01:23:52;;;;;;;;;;;7.20;99.90;;;;;;4990109;28;20383;-71
2022/11/18 01:26:18;;;;;;;;;;;7.10;99.90;;;;;;4990665;28;20012;-70
2022/11/18 01:28:46;;;;;;;;;;;7.20;99.90;;;;;;4990893;28;19928;-70
2022/11/18 01:31:17;;;;;;;;;;;7.20;99.90;;;;;;4991220;28;19922;-70
2022/11/18 01:33:45;;;;;;;;;;;7.10;99.90;;;;;;4990273;28;19922;-70
2022/11/18 01:36:21;;;;;;;;;;;7.10;99.90;;;;;;4994064;28;19921;-70
2022/11/18 01:38:50;;;;;;;;;;;7.10;99.90;;;;;;4990727;28;19925;-70
2022/11/18 01:41:16;;;;;;;;;;;8.50;99.90;;;;;;4990214;28;19922;-70
2022/11/18 01:43:52;;;;;;;;;;;7.10;99.90;;;;;;4990731;28;19975;-71
2022/11/18 01:46:18;;;;;;;;;;;7.00;99.90;;;;;;4991185;28;19922;-70
2022/11/18 01:48:45;;;;;;;;;;;7.20;99.90;;;;;;4988628;28;19922;-70
2022/11/18 01:51:13;;;;;;;;;;;7.00;99.90;;;;;;4990689;28;19922;-71
2022/11/18 01:53:40;;;;;;;;;;;7.00;99.90;;;;;;4989756;28;20000;-71
2022/11/18 01:56:21;;;;;;;;;;;7.00;99.90;;;;;;4990623;28;19922;-70
2022/11/18 01:58:57;;;;;;;;;;;7.00;99.90;;;;;;4988375;28;19922;-71
2022/11/18 02:01:24;;;;;;;;;;;7.10;99.90;;;;;;4992630;28;19921;-70
2022/11/18 02:03:50;;;;;;;;;;;7.10;99.90;;;;;;4990251;28;19922;-70
2022/11/18 02:06:16;;;;;;;;;;;7.00;99.90;;;;;;4990666;28;19975;-70
2022/11/18 02:08:42;;;;;;;;;;;7.00;99.90;;;;;;4988388;28;19918;-71
2022/11/18 02:11:49;;;;;;;;;;;7.10;99.90;;;;;;4990587;28;20361;-70
2022/11/18 02:13:58;;;;;;;;;;;7.10;99.90;;;;;;4989372;28;19961;-70
2022/11/18 02:16:30;;;;;;;;;;;7.10;99.90;;;;;;4989566;28;20438;-70
2022/11/18 02:19:14;;;;;;;;;;;7.10;99.90;;;;;;4990139;28;19967;-70
2022/11/18 02:21:45;;;;;;;;;;;7.20;99.90;;;;;;4985892;28;19952;-70
2022/11/18 02:24:23;;;;;;;;;;;7.20;99.90;;;;;;4990896;28;19921;-70
2022/11/18 02:26:54;;;;;;;;;;;7.20;99.90;;;;;;4989761;28;20376;-70
2022/11/18 02:29:27;;;;;;;;;;;7.20;99.90;;;;;;4989696;28;19926;-70
2022/11/18 02:31:56;;;;;;;;;;;7.20;99.90;;;;;;4989886;28;20426;-70
2022/11/18 02:34:33;;;;;;;;;;;7.20;99.90;;;;;;4990641;28;19922;-70
2022/11/18 02:37:05;;;;;;;;;;;7.30;99.90;;;;;;4986061;28;20395;-70
2022/11/18 02:39:33;;;;;;;;;;;7.30;99.90;;;;;;4986694;28;19922;-70
2022/11/18 02:42:00;;;;;;;;;;;7.30;99.90;;;;;;4990562;28;20326;-70
2022/11/18 02:44:28;;;;;;;;;;;7.30;99.90;;;;;;4985946;28;19976;-70
2022/11/18 02:46:55;;;;;;;;;;;7.40;99.90;;;;;;4990840;28;19921;-70
2022/11/18 02:49:24;;;;;;;;;;;7.40;99.90;;;;;;4990300;28;19928;-70
2022/11/18 02:51:50;;;;;;;;;;;7.40;99.90;;;;;;4989022;28;19967;-70
2022/11/18 02:54:16;;;;;;;;;;;7.40;99.90;;;;;;4990285;28;19922;-70
2022/11/18 02:56:42;;;;;;;;;;;7.40;99.90;;;;;;4989533;28;19922;-69
2022/11/18 02:59:08;;;;;;;;;;;7.40;99.90;;;;;;4989644;28;19929;-70
2022/11/18 03:01:34;;;;;;;;;;;7.50;99.90;;;;;;4989542;28;19921;-70
2022/11/18 03:04:00;;;;;;;;;;;7.50;99.90;;;;;;4989472;28;19950;-69
2022/11/18 03:06:39;;;;;;;;;;;7.60;99.90;;;;;;4989619;28;19953;-70
2022/11/18 03:09:23;;;;;;;;;;;7.60;99.90;;;;;;4989958;28;19928;-69
2022/11/18 03:12:07;;;;;;;;;;;7.50;99.90;;;;;;4987516;28;19922;-70
2022/11/18 03:14:35;;;;;;;;;;;7.60;99.90;;;;;;4988330;28;20292;-70
2022/11/18 03:17:12;;;;;;;;;;;7.50;99.90;;;;;;4991874;28;19922;-71
2022/11/18 03:19:58;;;;;;;;;;;7.60;99.90;;;;;;4988600;28;19969;-71
2022/11/18 03:22:33;;;;;;;;;;;7.60;99.90;;;;;;4971146;28;19921;-71
2022/11/18 03:25:07;;;;;;;;;;;7.60;99.90;;;;;;4989016;28;19921;-71
2022/11/18 03:27:38;;;;;;;;;;;7.60;99.90;;;;;;4987602;28;20377;-71
2022/11/18 03:30:05;;;;;;;;;;;7.60;99.90;;;;;;4990807;28;19922;-71
2022/11/18 03:32:34;;;;;;;;;;;7.70;99.90;;;;;;4991896;28;19975;-71
2022/11/18 03:35:02;;;;;;;;;;;7.60;99.90;;;;;;4993152;28;19918;-71
2022/11/18 03:37:30;;;;;;;;;;;7.70;99.90;;;;;;4992777;28;19921;-71
2022/11/18 03:39:59;;;;;;;;;;;7.70;99.90;;;;;;4992440;28;19917;-71
2022/11/18 03:42:31;;;;;;;;;;;7.70;99.90;;;;;;4992636;28;20376;-71
2022/11/18 03:45:00;;;;;;;;;;;7.70;99.90;;;;;;4991546;28;19921;-71
2022/11/18 03:47:33;;;;;;;;;;;7.70;99.90;;;;;;4991904;28;19917;-71
2022/11/18 03:50:03;;;;;;;;;;;7.70;99.90;;;;;;4991412;28;19971;-71
2022/11/18 03:52:31;;;;;;;;;;;7.60;99.90;;;;;;4991347;28;19971;-71
2022/11/18 03:54:57;;;;;;;;;;;7.60;99.90;;;;;;4993400;28;19976;-71
2022/11/18 03:57:26;;;;;;;;;;;7.70;99.90;;;;;;4992817;28;19925;-69
2022/11/18 03:59:58;;;;;;;;;;;7.70;99.90;;;;;;4992345;28;19922;-69
2022/11/18 04:02:25;;;;;;;;;;;7.70;99.90;;;;;;4990526;28;19929;-69
2022/11/18 04:04:51;;;;;;;;;;;7.70;99.90;;;;;;4993230;28;19926;-70
2022/11/18 04:07:35;;;;;;;;;;;7.70;99.90;;;;;;4990005;28;19922;-70
2022/11/18 04:10:06;;;;;;;;;;;7.60;99.90;;;;;;4992704;28;20016;-70
2022/11/18 04:12:34;;;;;;;;;;;7.70;99.90;;;;;;4991922;28;19921;-70
2022/11/18 04:15:00;;;;;;;;;;;7.70;99.90;;;;;;4993437;28;20300;-69
2022/11/18 04:17:26;;;;;;;;;;;7.60;99.90;;;;;;4991967;28;19921;-70
2022/11/18 04:19:52;;;;;;;;;;;7.60;99.90;;;;;;4991911;28;19928;-70
2022/11/18 04:22:18;;;;;;;;;;;7.60;99.90;;;;;;4990552;28;20008;-70
2022/11/18 04:24:43;;;;;;;;;;;7.60;99.90;;;;;;4988562;28;19989;-71
2022/11/18 04:27:10;;;;;;;;;;;7.60;99.90;;;;;;4993594;28;20035;-70
2022/11/18 04:29:35;;;;;;;;;;;7.90;99.90;;;;;;4990411;28;19928;-70
2022/11/18 04:32:03;;;;;;;;;;;7.60;99.90;;;;;;4991441;28;20445;-70
2022/11/18 04:34:29;;;;;;;;;;;7.60;99.90;;;;;;4991426;28;19967;-70
2022/11/18 04:36:55;;;;;;;;;;;8.00;99.90;;;;;;4989268;28;19928;-71
2022/11/18 04:39:20;;;;;;;;;;;7.50;99.90;;;;;;4991656;28;19930;-70
2022/11/18 04:41:58;;;;;;;;;;;7.50;99.90;;;;;;4989929;28;20305;-70
2022/11/18 04:44:33;;;;;;;;;;;7.50;99.90;;;;;;4990761;28;19933;-70
2022/11/18 04:47:03;;;;;;;;;;;7.60;99.90;;;;;;4991674;28;19925;-70
2022/11/18 04:49:28;;;;;;;;;;;7.60;99.90;;;;;;4990872;28;20055;-69
2022/11/18 04:51:54;;;;;;;;;;;7.50;99.90;;;;;;4993526;28;20004;-69
2022/11/18 04:54:20;;;;;;;;;;;7.50;99.90;;;;;;4999533;28;19922;-70
2022/11/18 04:56:46;;;;;;;;;;;7.50;99.90;;;;;;4994318;28;19928;-69
2022/11/18 04:59:11;;;;;;;;;;;7.50;99.90;;;;;;4998813;28;19921;-70
2022/11/18 05:01:37;;;;;;;;;;;7.40;99.90;;;;;;4993925;28;19984;-70
2022/11/18 05:04:03;;;;;;;;;;;7.40;99.90;;;;;;4989794;28;19922;-70
2022/11/18 05:06:32;;;;;;;;;;;7.40;99.90;;;;;;4987519;28;19922;-70
2022/11/18 05:09:00;;;;;;;;;;;7.40;99.90;;;;;;4990647;28;19976;-70
2022/11/18 05:14:13;;;;;;;;;;;7.40;99.90;;;;;;4993261;28;19922;-70
2022/11/18 05:16:38;;;;;;;;;;;7.30;99.90;;;;;;4991260;28;19975;-69
2022/11/18 05:19:04;;;;;;;;;;;7.30;99.90;;;;;;4988301;28;19922;-70
2022/11/18 05:21:30;;;;;;;;;;;7.30;99.90;;;;;;4992521;28;20323;-70
2022/11/18 05:23:57;;;;;;;;;;;7.30;99.90;;;;;;4994069;28;19924;-70
2022/11/18 05:26:23;;;;;;;;;;;7.30;99.90;;;;;;4990321;28;20416;-70
2022/11/18 05:28:51;;;;;;;;;;;7.50;99.90;;;;;;4989668;28;19922;-71
2022/11/18 05:31:17;;;;;;;;;;;7.40;99.90;;;;;;4990949;28;19926;-71
2022/11/18 05:33:43;;;;;;;;;;;7.30;99.90;;;;;;4990131;28;19921;-70
2022/11/18 05:36:10;;;;;;;;;;;7.80;99.90;;;;;;4993381;28;19964;-69
2022/11/18 05:38:35;;;;;;;;;;;7.30;99.90;;;;;;4989963;28;19929;-69
2022/11/18 05:41:01;;;;;;;;;;;7.70;99.90;;;;;;4990941;28;19921;-69
2022/11/18 05:43:27;;;;;;;;;;;7.30;99.90;;;;;;4990989;28;19965;-69
2022/11/18 05:45:53;;;;;;;;;;;7.30;99.90;;;;;;4989949;28;20087;-69
2022/11/18 05:48:19;;;;;;;;;;;7.30;99.90;;;;;;4990609;28;20017;-69
2022/11/18 05:50:45;;;;;;;;;;;7.30;99.90;;;;;;4990623;28;19921;-69
2022/11/18 05:53:12;;;;;;;;;;;7.30;99.90;;;;;;4989457;28;20742;-69
2022/11/18 05:55:49;;;;;;;;;;;7.30;99.90;;;;;;4989173;28;19918;-69
2022/11/18 05:58:14;;;;;;;;;;;7.30;99.90;;;;;;4989388;28;19922;-71
2022/11/18 06:00:40;;;;;;;;;;;7.20;99.90;;;;;;4989812;28;19932;-70
2022/11/18 06:03:11;;;;;;;;;;;7.20;99.90;;;;;;4990665;28;19940;-68
2022/11/18 06:05:37;;;;;;;;;;;7.20;99.90;;;;;;4989981;28;20388;-69
2022/11/18 06:08:02;;;;;;;;;;;7.20;99.90;;;;;;4989672;28;20006;-71
2022/11/18 06:10:30;;;;;;;;;;;7.20;99.90;;;;;;4990713;28;20296;-68
2022/11/18 06:12:59;;;;;;;;;;;7.20;99.90;;;;;;4990557;28;19928;-72
2022/11/18 06:15:32;;;;;;;;;;;7.20;99.90;;;;;;4988575;28;19925;-72
2022/11/18 06:17:59;;;;;;;;;;;7.20;99.90;;;;;;4993289;28;19936;-69
2022/11/18 06:20:25;;;;;;;;;;;7.20;99.90;;;;;;4990440;28;19943;-69
2022/11/18 06:22:52;;;;;;;;;;;7.20;99.90;;;;;;4989116;28;20292;-67
2022/11/18 06:25:18;;;;;;;;;;;7.20;99.90;;;;;;4986554;28;20270;-68
2022/11/18 06:27:44;;;;;;;;;;;7.20;99.90;;;;;;4990660;28;19974;-70
2022/11/18 06:30:10;;;;;;;;;;;8.00;99.90;;;;;;4987853;28;20028;-67
2022/11/18 06:32:38;;;;;;;;;;;7.20;99.90;;;;;;4989291;28;19928;-68
2022/11/18 06:35:04;;;;;;;;;;;7.20;99.90;;;;;;4986405;28;19929;-70
2022/11/18 06:37:30;;;;;;;;;;;7.20;99.90;;;;;;4985801;28;19922;-69
2022/11/18 06:39:55;;;;;;;;;;;7.20;99.90;;;;;;4987347;28;19926;-70
2022/11/18 06:45:05;;;;;;;;;;;7.20;99.90;;;;;;4987264;28;20342;-71
2022/11/18 06:47:30;;;;;;;;;;;7.20;99.90;;;;;;4985925;28;19929;-68
2022/11/18 06:49:56;;;;;;;;;;;7.20;99.90;;;;;;4987643;28;19991;-67
2022/11/18 06:52:22;;;;;;;;;;;7.20;99.90;;;;;;4988591;28;19922;-67
2022/11/18 06:54:48;;;;;;;;;;;7.20;99.90;;;;;;4983363;28;19930;-68
2022/11/18 06:57:13;;;;;;;;;;;7.80;99.90;;;;;;4986841;28;19929;-68
2022/11/18 06:59:39;;;;;;;;;;;7.20;99.90;;;;;;4985739;28;19922;-67
2022/11/18 07:02:04;;;;;;;;;;;7.20;99.90;;;;;;4987802;28;19952;-68
2022/11/18 07:04:30;;;;;;;;;;;7.30;99.90;;;;;;4989674;28;19964;-70
2022/11/18 07:06:56;;;;;;;;;;;7.80;99.90;;;;;;4990515;28;20394;-70
2022/11/18 07:09:21;;;;;;;;;;;7.30;99.90;;;;;;4993184;28;20020;-70
2022/11/18 07:11:49;;;;;;;;;;;7.30;99.90;;;;;;4992113;28;19922;-76
2022/11/18 07:14:15;;;;;;;;;;;7.20;99.90;;;;;;4992491;28;19928;-74
2022/11/18 07:16:43;;;;;;;;;;;7.20;99.90;;;;;;4992869;28;19921;-76
2022/11/18 07:19:10;;;;;;;;;;;7.20;99.90;;;;;;4986307;28;19945;-73
2022/11/18 07:21:36;;;;;;;;;;;7.20;99.90;;;;;;4995674;28;19929;-73
2022/11/18 07:24:04;;;;;;;;;;;7.20;99.90;;;;;;4998456;28;19961;-73
2022/11/18 07:26:29;;;;;;;;;;;7.20;99.90;;;;;;4993939;28;19922;-75
2022/11/18 07:28:55;;;;;;;;;;;7.20;99.90;;;;;;4991708;28;20756;-72
2022/11/18 07:31:21;;;;;;;;;;;7.90;99.90;;;;;;4995151;28;19929;-72
2022/11/18 07:33:47;;;;;;;;;;;7.20;99.90;;;;;;4994052;28;20000;-70
2022/11/18 07:36:14;;;;;;;;;;;7.20;99.90;;;;;;4989933;28;19929;-74
2022/11/18 07:38:40;;;;;;;;;;;7.20;99.90;;;;;;4990924;28;19921;-73
2022/11/18 07:41:10;;;;;;;;;;;7.20;99.90;;;;;;4991571;28;19929;-72
2022/11/18 07:43:36;;;;;;;;;;;7.20;99.90;;;;;;4991727;28;19979;-73
2022/11/18 07:46:10;;;;;;;;;;;7.20;99.90;;;;;;4990831;28;20384;-73
2022/11/18 07:48:36;;;;;;;;;;;7.20;99.90;;;;;;4986703;28;19922;-72
2022/11/18 07:51:02;;;;;;;;;;;7.40;99.90;;;;;;4990906;28;19967;-73
2022/11/18 07:53:31;;;;;;;;;;;7.20;99.90;;;;;;4989103;28;20024;-72
2022/11/18 07:55:56;;;;;;;;;;;7.10;99.90;;;;;;4990571;28;19951;-73
2022/11/18 07:58:22;;;;;;;;;;;7.20;99.90;;;;;;4990384;28;20389;-73
2022/11/18 08:00:47;;;;;;;;;;;7.90;99.90;;;;;;4989716;28;19922;-73
2022/11/18 08:03:13;;;;;;;;;;;7.10;99.90;;;;;;4991966;28;19926;-73
2022/11/18 08:05:39;;;;;;;;;;;7.10;99.90;;;;;;4991032;28;20373;-73
2022/11/18 08:08:04;;;;;;;;;;;7.10;99.90;;;;;;4991114;28;19930;-73
2022/11/18 08:10:30;;;;;;;;;;;7.10;99.90;;;;;;5018081;28;19937;-73
2022/11/18 08:12:56;;;;;;;;;;;7.20;99.90;;;;;;4993219;28;19922;-73
2022/11/18 08:15:22;;;;;;;;;;;7.10;99.90;;;;;;4989558;28;21304;-73
2022/11/18 08:17:48;;;;;;;;;;;7.10;99.90;;;;;;4987570;28;20286;-73
2022/11/18 08:20:13;;;;;;;;;;;7.10;99.90;;;;;;4995292;28;20012;-73
2022/11/18 08:22:39;;;;;;;;;;;7.10;99.90;;;;;;4989724;28;19922;-74
2022/11/18 08:25:05;;;;;;;;;;;7.10;99.90;;;;;;4991073;28;19928;-73
2022/11/18 08:27:30;;;;;;;;;;;7.10;99.90;;;;;;4990923;28;19943;-73
2022/11/18 08:29:59;;;;;;;;;;;7.10;99.90;;;;;;4989112;28;19922;-73
2022/11/18 08:32:24;;;;;;;;;;;7.10;99.90;;;;;;4992093;28;20289;-73
2022/11/18 08:34:50;;;;;;;;;;;7.30;99.90;;;;;;4989740;28;19965;-72
2022/11/18 08:37:16;;;;;;;;;;;7.20;99.90;;;;;;4992576;28;19922;-72
2022/11/18 08:39:41;;;;;;;;;;;7.10;99.90;;;;;;4992266;28;20281;-73
2022/11/18 08:42:07;;;;;;;;;;;8.30;99.90;;;;;;4991344;28;20402;-72
2022/11/18 08:44:33;;;;;;;;;;;7.00;99.90;;;;;;4991412;28;19928;-72
2022/11/18 08:46:59;;;;;;;;;;;7.00;99.90;;;;;;4992180;28;19922;-72
2022/11/18 08:49:25;;;;;;;;;;;7.00;99.90;;;;;;4989805;28;19921;-72
2022/11/18 08:51:50;;;;;;;;;;;7.00;99.90;;;;;;4991265;28;20010;-72
2022/11/18 08:54:16;;;;;;;;;;;7.30;99.90;;;;;;4991031;28;19936;-72
2022/11/18 08:56:41;;;;;;;;;;;7.00;99.90;;;;;;4990456;28;19934;-72
2022/11/18 08:59:07;;;;;;;;;;;6.90;99.90;;;;;;4990509;28;19957;-72
2022/11/18 09:01:34;;;;;;;;;;;6.90;99.90;;;;;;4990386;28;20322;-72
2022/11/18 09:04:00;;;;;;;;;;;6.90;99.90;;;;;;4991017;28;19921;-71
2022/11/18 09:06:25;;;;;;;;;;;6.90;99.90;;;;;;4991783;28;19922;-72
2022/11/18 09:08:51;;;;;;;;;;;6.90;99.90;;;;;;4991627;28;20024;-70
2022/11/18 09:11:18;;;;;;;;;;;6.90;99.90;;;;;;4991310;28;20007;-70
2022/11/18 09:13:44;;;;;;;;;;;6.90;99.90;;;;;;4993443;28;19928;-72
2022/11/18 09:16:09;;;;;;;;;;;7.00;99.90;;;;;;5000645;28;19922;-72
2022/11/18 09:18:35;;;;;;;;;;;6.90;99.90;;;;;;5000449;28;19921;-72
2022/11/18 09:21:08;;;;;;;;;;;6.90;99.90;;;;;;5000870;28;19918;-72
2022/11/18 09:23:34;;;;;;;;;;;6.90;99.90;;;;;;4993135;28;19921;-72
2022/11/18 09:26:05;;;;;;;;;;;8.20;99.90;;;;;;4991075;28;19924;-71
2022/11/18 09:28:30;;;;;;;;;;;7.20;99.90;;;;;;4988893;28;19953;-71
2022/11/18 09:30:56;;;;;;;;;;;7.00;99.90;;;;;;4990597;28;19973;-71
2022/11/18 09:33:22;;;;;;;;;;;7.10;99.90;;;;;;4989911;28;20442;-71
2022/11/18 09:35:47;;;;;;;;;;;7.00;99.90;;;;;;4990957;28;20300;-71
2022/11/18 09:38:13;;;;;;;;;;;7.60;99.90;;;;;;4990547;28;19937;-71
2022/11/18 09:40:59;;;;;;;;;;;7.10;99.90;;;;;;4990660;28;20319;-71
2022/11/18 09:43:35;;;;;;;;;;;7.10;99.90;;;;;;4976532;28;19922;-71
2022/11/18 09:46:07;;;;;;;;;;;7.00;99.90;;;;;;4990344;28;19964;-71
2022/11/18 09:51:19;;;;;;;;;;;7.00;99.90;;;;;;4987362;28;20360;-71
2022/11/18 09:53:45;;;;;;;;;;;7.00;99.90;;;;;;4990170;28;19968;-72
2022/11/18 09:56:14;;;;;;;;;;;7.00;99.90;;;;;;4990750;28;19917;-71
2022/11/18 09:58:41;;;;;;;;;;;7.10;99.90;;;;;;4990624;28;19929;-71
2022/11/18 10:01:16;;;;;;;;;;;7.10;99.90;;;;;;4990812;28;19926;-72
2022/11/18 10:03:41;;;;;;;;;;;7.10;99.90;;;;;;4989153;28;19922;-72
2022/11/18 10:06:26;;;;;;;;;;;7.10;99.90;;;;;;4990237;28;19983;-71
2022/11/18 10:08:58;;;;;;;;;;;7.20;99.90;;;;;;4986948;28;19922;-72
2022/11/18 10:11:25;;;;;;;;;;;7.20;99.90;;;;;;4992675;28;19921;-72
2022/11/18 10:14:09;;;;;;;;;;;7.20;99.90;;;;;;4989525;28;20403;-72
2022/11/18 10:16:42;;;;;;;;;;;7.30;99.90;;;;;;4989868;28;20389;-71
2022/11/18 10:19:17;;;;;;;;;;;7.30;99.90;;;;;;4991603;28;19922;-71
2022/11/18 10:21:45;;;;;;;;;;;7.30;99.90;;;;;;4985109;28;20401;-72
2022/11/18 10:24:15;;;;;;;;;;;7.20;99.90;;;;;;4986859;28;19922;-72
2022/11/18 10:26:41;;;;;;;;;;;7.30;99.90;;;;;;4988469;28;20424;-72
2022/11/18 10:29:09;;;;;;;;;;;7.30;99.90;;;;;;4987608;28;19965;-72
2022/11/18 10:31:36;;;;;;;;;;;7.30;99.90;;;;;;4988064;28;19922;-72
2022/11/18 10:34:02;;;;;;;;;;;7.30;99.90;;;;;;4989155;28;20462;-71
2022/11/18 10:36:33;;;;;;;;;;;7.20;99.90;;;;;;4989621;28;19921;-71
2022/11/18 10:39:14;;;;;;;;;;;7.30;99.90;;;;;;4990023;28;19947;-71
2022/11/18 10:41:43;;;;;;;;;;;7.30;99.90;;;;;;4986579;28;20385;-72
2022/11/18 10:44:27;;;;;;;;;;;7.20;99.90;;;;;;4989557;28;20384;-72
2022/11/18 10:46:52;;;;;;;;;;;7.20;99.90;;;;;;4989602;28;19975;-72
2022/11/18 10:49:18;;;;;;;;;;;7.20;99.90;;;;;;4987994;28;19985;-72
2022/11/18 10:52:02;;;;;;;;;;;7.20;99.90;;;;;;4990018;28;19929;-72
2022/11/18 10:54:27;;;;;;;;;;;7.20;99.90;;;;;;4986022;28;19937;-72
2022/11/18 10:56:53;;;;;;;;;;;7.60;99.90;;;;;;4992606;28;19918;-72
2022/11/18 10:59:24;;;;;;;;;;;7.20;99.90;;;;;;4989473;28;19932;-74
2022/11/18 11:02:19;;;;;;;;;;;7.20;99.90;;;;;;4993042;28;19917;-73
2022/11/18 11:04:49;;;;;;;;;;;7.20;99.90;;;;;;4970250;28;20330;-71
2022/11/18 11:07:15;;;;;;;;;;;7.20;99.90;;;;;;4991576;28;19925;-74
2022/11/18 11:09:40;;;;;;;;;;;7.20;99.90;;;;;;4989828;28;19921;-77
2022/11/18 11:12:20;;;;;;;;;;;7.20;99.90;;;;;;4988281;28;19929;-72
2022/11/18 11:14:56;;;;;;;;;;;7.20;99.90;;;;;;4994066;28;20587;-71
2022/11/18 11:17:27;;;;;;;;;;;7.20;99.90;;;;;;4987643;28;19922;-72
2022/11/18 11:20:05;;;;;;;;;;;7.60;99.90;;;;;;4989859;28;21037;-71
2022/11/18 11:22:30;;;;;;;;;;;7.30;99.90;;;;;;4986268;28;20249;-71
2022/11/18 11:24:56;;;;;;;;;;;7.10;99.90;;;;;;4992324;28;19983;-74
2022/11/18 11:27:36;;;;;;;;;;;7.10;99.90;;;;;;4997950;28;19925;-75
2022/11/18 11:30:01;;;;;;;;;;;7.10;99.90;;;;;;4986315;28;19922;-73
2022/11/18 11:32:57;;;;;;;;;;;7.10;99.90;;;;;;4988763;28;19975;-72
2022/11/18 11:35:33;;;;;;;;;;;7.10;99.90;;;;;;4988957;28;19988;-70
2022/11/18 11:38:00;;;;;;;;;;;7.10;99.90;;;;;;4985038;28;20396;-72
2022/11/18 11:40:37;;;;;;;;;;;7.10;99.90;;;;;;4984848;28;19921;-71
2022/11/18 11:43:03;;;;;;;;;;;7.00;99.90;;;;;;4989894;28;19928;-72
2022/11/18 11:45:46;;;;;;;;;;;7.20;99.90;;;;;;4990465;28;19929;-71
2022/11/18 11:48:31;;;;;;;;;;;7.00;99.90;;;;;;4988535;28;19921;-72
2022/11/18 11:51:15;;;;;;;;;;;7.00;99.90;;;;;;4990384;28;19921;-74
2022/11/18 11:53:52;;;;;;;;;;;6.90;99.90;;;;;;4993621;28;20259;-73
2022/11/18 11:56:37;;;;;;;;;;;7.00;99.90;;;;;;4991874;28;19933;-72
2022/11/18 11:59:11;;;;;;;;;;;6.90;99.90;;;;;;4989212;28;19983;-71
2022/11/18 12:01:55;;;;;;;;;;;7.00;99.90;;;;;;4995080;28;19971;-74
2022/11/18 12:04:27;;;;;;;;;;;7.00;99.90;;;;;;4998392;28;19929;-74
2022/11/18 12:06:54;;;;;;;;;;;7.00;99.90;;;;;;5008435;28;20308;-73
2022/11/18 12:09:32;;;;;;;;;;;7.00;99.90;;;;;;4999142;28;19943;-75
2022/11/18 12:12:04;;;;;;;;;;;6.90;99.90;;;;;;4998843;28;19926;-71
2022/11/18 12:14:52;;;;;;;;;;;6.80;99.90;;;;;;4997775;28;20355;-70
2022/11/18 12:17:23;;;;;;;;;;;6.80;99.90;;;;;;4997305;28;20012;-70
2022/11/18 12:19:49;;;;;;;;;;;6.80;99.90;;;;;;4994572;28;19922;-71
2022/11/18 12:22:14;;;;;;;;;;;6.80;99.90;;;;;;4991290;28;19991;-73
2022/11/18 12:24:41;;;;;;;;;;;6.80;99.90;;;;;;4997015;28;20012;-78
2022/11/18 12:27:12;;;;;;;;;;;6.90;99.90;;;;;;4997357;28;19925;-71
2022/11/18 12:29:42;;;;;;;;;;;6.80;99.90;;;;;;4996008;28;19932;-71
2022/11/18 12:32:30;;;;;;;;;;;6.70;99.90;;;;;;4996158;28;20014;-76
2022/11/18 12:34:56;;;;;;;;;;;6.70;99.90;;;;;;4994382;28;19921;-73
2022/11/18 12:37:21;;;;;;;;;;;6.70;99.90;;;;;;4995027;28;20016;-71
2022/11/18 12:39:47;;;;;;;;;;;6.70;99.90;;;;;;4989681;28;19972;-73
2022/11/18 12:45:45;;;;;;;;;;;6.70;99.90;;;;;;4929484;28;20457;-74
2022/11/18 12:48:22;;;;;;;;;;;6.70;99.90;;;;;;4919927;28;20374;-72
2022/11/18 12:50:49;;;;;;;;;;;6.70;99.90;;;;;;4975625;28;19921;-72
2022/11/18 12:53:31;;;;;;;;;;;6.70;99.90;;;;;;4992891;28;19929;-72
2022/11/18 12:55:57;;;;;;;;;;;6.60;99.90;;;;;;4996491;28;19932;-72
2022/11/18 12:58:24;;;;;;;;;;;6.80;99.90;;;;;;4995399;28;19921;-72
2022/11/18 13:00:52;;;;;;;;;;;6.70;99.90;;;;;;4992259;28;20376;-72
2022/11/18 13:03:23;;;;;;;;;;;6.60;99.90;;;;;;4990231;28;19917;-72
2022/11/18 13:05:49;;;;;;;;;;;6.60;99.90;;;;;;4991261;28;19929;-70
2022/11/18 13:08:16;;;;;;;;;;;6.70;99.90;;;;;;4991476;28;19972;-72
2022/11/18 13:10:42;;;;;;;;;;;6.60;99.90;;;;;;4986745;28;20269;-70
2022/11/18 13:13:18;;;;;;;;;;;6.50;99.90;;;;;;5012207;28;19979;-72
2022/11/18 13:18:30;;;;;;;;;;;6.60;99.90;;;;;;4997773;28;19944;-70
2022/11/18 13:20:57;;;;;;;;;;;6.60;99.90;;;;;;5007392;28;19922;-69
2022/11/18 13:26:28;;;;;;;;;;;6.70;99.90;;;;;;4998123;28;20295;-68
2022/11/18 13:29:14;;;;;;;;;;;6.40;99.90;;;;;;5005426;28;19925;-69
2022/11/18 13:31:48;;;;;;;;;;;6.30;99.90;;;;;;4988957;28;20027;-69
2022/11/18 13:34:21;;;;;;;;;;;6.30;99.90;;;;;;4990548;28;19966;-68
2022/11/18 13:36:49;;;;;;;;;;;6.20;99.90;;;;;;4991025;28;19971;-70
2022/11/18 13:39:18;;;;;;;;;;;6.10;99.90;;;;;;4989292;28;19921;-70
2022/11/18 13:41:43;;;;;;;;;;;6.10;99.90;;;;;;5006382;28;19927;-70
2022/11/18 13:44:10;;;;;;;;;;;6.10;99.90;;;;;;4991419;28;20744;-70
2022/11/18 13:46:37;;;;;;;;;;;6.10;99.90;;;;;;4987114;28;19975;-70
2022/11/18 13:49:09;;;;;;;;;;;6.10;99.90;;;;;;4990957;28;19921;-71
2022/11/18 13:51:36;;;;;;;;;;;7.50;99.90;;;;;;4986195;28;19928;-70
2022/11/18 13:54:01;;;;;;;;;;;6.20;99.90;;;;;;4995896;28;19965;-71
2022/11/18 13:56:29;;;;;;;;;;;6.30;99.90;;;;;;4991206;28;19969;-70
2022/11/18 13:58:57;;;;;;;;;;;6.10;99.90;;;;;;4989699;28;19922;-71
2022/11/18 14:01:24;;;;;;;;;;;6.10;99.90;;;;;;4989732;28;19929;-70
2022/11/18 14:03:52;;;;;;;;;;;6.00;99.90;;;;;;4989470;28;20398;-70
2022/11/18 14:06:33;;;;;;;;;;;6.00;99.90;;;;;;4989702;28;20389;-70
2022/11/18 14:09:08;;;;;;;;;;;6.00;99.90;;;;;;4986585;28;19925;-71
2022/11/18 14:11:37;;;;;;;;;;;6.00;99.90;;;;;;4989104;28;19921;-70
2022/11/18 14:14:03;;;;;;;;;;;5.90;99.90;;;;;;4986285;28;19922;-70
2022/11/18 14:16:30;;;;;;;;;;;5.90;99.90;;;;;;4989954;28;19928;-71
2022/11/18 14:18:56;;;;;;;;;;;5.90;99.90;;;;;;4990610;28;19974;-70
2022/11/18 14:21:25;;;;;;;;;;;5.80;99.90;;;;;;4990167;28;19917;-70
2022/11/18 14:23:51;;;;;;;;;;;5.80;99.90;;;;;;4987148;28;19925;-70
2022/11/18 14:26:25;;;;;;;;;;;5.70;99.90;;;;;;4989427;28;19967;-69
2022/11/18 14:28:55;;;;;;;;;;;5.70;99.90;;;;;;4990494;28;19922;-71
2022/11/18 14:31:25;;;;;;;;;;;5.70;99.90;;;;;;4990147;28;19928;-72
2022/11/18 14:34:09;;;;;;;;;;;5.70;99.90;;;;;;4991759;28;19975;-70
2022/11/18 14:36:35;;;;;;;;;;;5.70;99.90;;;;;;4986964;28;20021;-70
2022/11/18 14:39:03;;;;;;;;;;;5.80;99.90;;;;;;4989169;28;20371;-71
2022/11/18 14:41:47;;;;;;;;;;;6.70;99.90;;;;;;4989336;28;19928;-71
2022/11/18 14:44:12;;;;;;;;;;;5.70;99.90;;;;;;4989474;28;20304;-71
2022/11/18 14:46:42;;;;;;;;;;;5.60;99.90;;;;;;4988650;28;19967;-70
2022/11/18 14:49:16;;;;;;;;;;;5.60;99.90;;;;;;4988763;28;19922;-72
2022/11/18 14:51:42;;;;;;;;;;;5.60;99.90;;;;;;4993857;28;19932;-72
2022/11/18 14:54:11;;;;;;;;;;;5.50;99.90;;;;;;4990146;28;20008;-72
2022/11/18 14:56:36;;;;;;;;;;;5.50;99.90;;;;;;4989977;28;19921;-70
2022/11/18 14:59:04;;;;;;;;;;;5.50;99.90;;;;;;4989875;28;19922;-69
2022/11/18 15:01:30;;;;;;;;;;;5.40;99.90;;;;;;4987926;28;19932;-70
2022/11/18 15:03:55;;;;;;;;;;;5.40;99.90;;;;;;4990275;28;19977;-71
2022/11/18 15:06:21;;;;;;;;;;;5.40;99.90;;;;;;4985720;28;19972;-70